createdAt,value
2018-11-04T00:00:20.252Z,11.16
2018-11-04T00:02:50.154Z,12.15
2018-11-04T00:05:19.817Z,12.12
2018-11-04T00:07:50.446Z,12.09
2018-11-04T00:10:20.052Z,12.07
2018-11-04T00:12:49.616Z,12.06
2018-11-04T00:15:19.207Z,12.06
2018-11-04T00:17:48.722Z,12.04
2018-11-04T00:20:18.307Z,12.03
2018-11-04T00:22:47.894Z,12.02
2018-11-04T00:25:17.518Z,11.98
2018-11-04T00:27:47.022Z,11.96
2018-11-04T00:30:16.782Z,11.92
2018-11-04T00:32:46.366Z,11.87
2018-11-04T00:35:15.954Z,11.85
2018-11-04T00:37:45.506Z,11.78
2018-11-04T00:40:15.050Z,11.70
2018-11-04T00:42:44.592Z,11.68
2018-11-04T00:45:14.196Z,11.67
2018-11-04T00:47:43.887Z,11.62
2018-11-04T00:50:14.870Z,11.57
2018-11-04T00:52:44.689Z,10.55
2018-11-04T00:55:14.579Z,11.51
2018-11-04T00:57:44.103Z,11.53
2018-11-04T01:00:16.832Z,11.50
2018-11-04T01:02:47.454Z,11.50
2018-11-04T01:05:17.391Z,11.54
2018-11-04T01:07:46.981Z,11.52
2018-11-04T01:10:16.585Z,11.51
2018-11-04T01:12:46.305Z,11.50
2018-11-04T01:15:16.175Z,11.51
2018-11-04T01:17:45.720Z,11.49
2018-11-04T01:20:16.450Z,11.48
2018-11-04T01:22:46.534Z,11.48
2018-11-04T01:25:16.077Z,11.47
2018-11-04T01:27:45.666Z,11.46
2018-11-04T01:30:15.888Z,11.44
2018-11-04T01:32:45.588Z,11.44
2018-11-04T01:35:15.127Z,11.43
2018-11-04T01:37:44.681Z,11.43
2018-11-04T01:40:14.261Z,11.41
2018-11-04T01:42:43.782Z,11.37
2018-11-04T01:45:13.329Z,11.32
2018-11-04T01:47:42.862Z,11.31
2018-11-04T01:50:14.084Z,11.27
2018-11-04T01:52:43.683Z,11.24
2018-11-04T01:55:13.476Z,11.20
2018-11-04T01:57:43.032Z,11.16
2018-11-04T02:00:16.258Z,11.13
2018-11-04T02:02:46.370Z,11.09
2018-11-04T02:05:16.210Z,11.06
2018-11-04T02:07:45.695Z,11.03
2018-11-04T02:10:15.704Z,10.99
2018-11-04T02:12:45.234Z,10.94
2018-11-04T02:15:14.875Z,10.91
2018-11-04T02:17:44.449Z,10.87
2018-11-04T02:20:14.386Z,10.83
2018-11-04T02:22:44.045Z,10.77
2018-11-04T02:25:14.360Z,10.74
2018-11-04T02:27:44.307Z,10.70
2018-11-04T02:30:17.506Z,10.66
2018-11-04T02:32:47.490Z,10.63
2018-11-04T02:35:17.187Z,10.61
2018-11-04T02:37:46.795Z,10.58
2018-11-04T02:40:16.375Z,10.57
2018-11-04T02:42:45.875Z,10.51
2018-11-04T02:45:15.496Z,10.48
2018-11-04T02:47:45.060Z,10.46
2018-11-04T02:50:14.619Z,10.43
2018-11-04T02:52:44.137Z,10.41
2018-11-04T02:55:13.719Z,10.39
2018-11-04T02:57:43.239Z,10.37
2018-11-04T03:00:14.425Z,10.34
2018-11-04T03:02:44.028Z,10.32
2018-11-04T03:05:13.540Z,10.29
2018-11-04T03:07:43.603Z,10.27
2018-11-04T03:10:14.226Z,10.25
2018-11-04T03:12:43.782Z,10.22
2018-11-04T03:15:13.300Z,10.21
2018-11-04T03:17:42.856Z,10.17
2018-11-04T03:20:12.409Z,10.14
2018-11-04T03:22:41.971Z,10.13
2018-11-04T03:25:11.575Z,10.07
2018-11-04T03:27:41.103Z,9.96
2018-11-04T03:30:10.903Z,9.99
2018-11-04T03:32:40.614Z,9.95
2018-11-04T03:35:10.151Z,9.89
2018-11-04T03:37:39.682Z,9.91
2018-11-04T03:40:10.713Z,9.91
2018-11-04T03:42:40.561Z,9.88
2018-11-04T03:45:10.664Z,9.88
2018-11-04T03:47:40.436Z,9.85
2018-11-04T03:50:11.468Z,9.83
2018-11-04T03:52:41.097Z,9.81
2018-11-04T03:55:10.662Z,9.79
2018-11-04T03:57:40.214Z,9.80
2018-11-04T04:00:11.950Z,9.80
2018-11-04T04:02:42.343Z,9.84
2018-11-04T04:05:12.268Z,9.84
2018-11-04T04:07:41.847Z,9.83
2018-11-04T04:10:11.445Z,9.83
2018-11-04T04:12:41.001Z,9.81
2018-11-04T04:15:11.550Z,9.79
2018-11-04T04:17:41.339Z,9.77
2018-11-04T04:20:10.917Z,9.79
2018-11-04T04:22:40.510Z,9.81
2018-11-04T04:25:10.223Z,9.81
2018-11-04T04:27:39.770Z,9.79
2018-11-04T04:30:10.874Z,9.73
2018-11-04T04:32:40.423Z,9.64
2018-11-04T04:35:10.801Z,9.63
2018-11-04T04:37:40.875Z,9.64
2018-11-04T04:40:10.703Z,9.65
2018-11-04T04:42:40.191Z,9.68
2018-11-04T04:45:09.765Z,9.67
2018-11-04T04:47:39.331Z,9.66
2018-11-04T04:50:08.894Z,9.64
2018-11-04T04:52:38.438Z,9.63
2018-11-04T04:55:08.027Z,9.63
2018-11-04T04:57:37.567Z,9.62
2018-11-04T05:00:07.822Z,9.62
2018-11-04T05:02:37.402Z,9.60
2018-11-04T05:05:07.213Z,9.60
2018-11-04T05:07:36.707Z,9.60
2018-11-04T05:10:06.859Z,9.59
2018-11-04T05:12:36.623Z,9.58
2018-11-04T05:15:07.448Z,9.59
2018-11-04T05:17:37.117Z,9.58
2018-11-04T05:20:06.836Z,9.59
2018-11-04T05:22:36.350Z,9.59
2018-11-04T05:25:06.421Z,9.59
2018-11-04T05:27:35.957Z,9.58
2018-11-04T05:30:07.512Z,9.57
2018-11-04T05:32:37.005Z,9.58
2018-11-04T05:35:07.035Z,9.60
2018-11-04T05:37:37.004Z,9.62
2018-11-04T05:40:07.299Z,9.66
2018-11-04T05:42:36.795Z,9.73
2018-11-04T05:45:07.240Z,9.81
2018-11-04T05:47:36.820Z,9.90
2018-11-04T05:50:06.916Z,9.99
2018-11-04T05:52:36.838Z,9.38
2018-11-04T05:55:07.299Z,10.18
2018-11-04T05:57:36.856Z,10.26
2018-11-04T06:00:07.687Z,10.35
2018-11-04T06:02:37.190Z,10.44
2018-11-04T06:05:08.058Z,10.54
2018-11-04T06:07:37.570Z,10.66
2018-11-04T06:10:07.570Z,10.79
2018-11-04T06:12:37.606Z,10.92
2018-11-04T06:15:07.962Z,11.07
2018-11-04T06:17:37.547Z,11.22
2018-11-04T06:20:08.308Z,11.38
2018-11-04T06:22:37.862Z,11.54
2018-11-04T06:25:07.560Z,11.70
2018-11-04T06:27:37.091Z,11.87
2018-11-04T06:30:08.486Z,12.04
2018-11-04T06:32:38.078Z,12.20
2018-11-04T06:35:08.103Z,12.35
2018-11-04T06:37:37.906Z,12.47
2018-11-04T06:40:08.258Z,12.53
2018-11-04T06:42:37.843Z,12.66
2018-11-04T06:45:08.351Z,12.71
2018-11-04T06:47:38.038Z,12.88
2018-11-04T06:50:09.644Z,12.98
2018-11-04T06:52:39.167Z,13.09
2018-11-04T06:55:09.327Z,13.20
2018-11-04T06:57:39.072Z,13.29
2018-11-04T07:00:10.376Z,13.37
2018-11-04T07:02:40.192Z,13.43
2018-11-04T07:05:09.748Z,13.52
2018-11-04T07:07:39.328Z,12.70
2018-11-04T07:10:09.536Z,13.71
2018-11-04T07:12:39.186Z,13.77
2018-11-04T07:15:08.744Z,13.84
2018-11-04T07:17:38.471Z,13.89
2018-11-04T07:20:08.826Z,13.94
2018-11-04T07:22:38.630Z,13.94
2018-11-04T07:25:08.462Z,13.97
2018-11-04T07:27:38.019Z,14.01
2018-11-04T07:30:09.547Z,14.04
2018-11-04T07:32:39.094Z,14.07
2018-11-04T07:35:09.150Z,14.09
2018-11-04T07:37:38.824Z,14.12
2018-11-04T07:40:09.174Z,14.15
2018-11-04T07:42:39.190Z,14.19
2018-11-04T07:45:09.472Z,14.25
2018-11-04T07:47:39.023Z,14.31
2018-11-04T07:50:10.815Z,14.35
2018-11-04T07:52:40.362Z,14.42
2018-11-04T07:55:10.252Z,14.51
2018-11-04T07:57:41.320Z,14.59
2018-11-04T08:00:13.369Z,14.66
2018-11-04T08:02:43.265Z,14.71
2018-11-04T08:05:13.127Z,14.75
2018-11-04T08:07:42.698Z,14.81
2018-11-04T08:10:13.465Z,14.86
2018-11-04T08:12:43.046Z,14.93
2018-11-04T08:15:12.587Z,14.95
2018-11-04T08:17:42.157Z,14.99
2018-11-04T08:20:11.728Z,15.07
2018-11-04T08:22:41.553Z,15.15
2018-11-04T08:25:11.079Z,15.20
2018-11-04T08:27:40.649Z,15.23
2018-11-04T08:30:10.336Z,15.31
2018-11-04T08:32:39.870Z,15.39
2018-11-04T08:35:09.376Z,15.47
2018-11-04T08:37:38.937Z,15.55
2018-11-04T08:40:08.727Z,15.62
2018-11-04T08:42:38.145Z,15.69
2018-11-04T08:45:08.063Z,15.75
2018-11-04T08:47:37.623Z,15.83
2018-11-04T08:50:08.566Z,15.84
2018-11-04T08:52:38.161Z,15.79
2018-11-04T08:55:08.747Z,15.89
2018-11-04T08:57:38.348Z,15.93
2018-11-04T09:00:10.091Z,15.96
2018-11-04T09:02:39.604Z,16.02
2018-11-04T09:05:09.561Z,16.10
2018-11-04T09:07:39.175Z,16.16
2018-11-04T09:10:11.824Z,16.22
2018-11-04T09:12:41.459Z,16.27
2018-11-04T09:15:11.503Z,16.29
2018-11-04T09:17:41.115Z,16.37
2018-11-04T09:20:12.616Z,16.42
2018-11-04T09:22:43.069Z,16.44
2018-11-04T09:25:13.164Z,16.50
2018-11-04T09:27:42.704Z,16.50
2018-11-04T09:30:14.574Z,16.53
2018-11-04T09:32:44.132Z,16.58
2018-11-04T09:35:13.825Z,16.58
2018-11-04T09:37:43.327Z,16.56
2018-11-04T09:40:13.673Z,16.63
2018-11-04T09:42:43.194Z,16.69
2018-11-04T09:45:12.781Z,16.73
2018-11-04T09:47:42.339Z,16.76
2018-11-04T09:50:12.514Z,16.82
2018-11-04T09:52:42.018Z,16.88
2018-11-04T09:55:12.397Z,16.89
2018-11-04T09:57:41.942Z,16.93
2018-11-04T10:00:12.662Z,16.93
2018-11-04T10:02:42.218Z,16.94
2018-11-04T10:05:12.187Z,16.96
2018-11-04T10:07:41.773Z,16.96
2018-11-04T10:10:13.750Z,17.02
2018-11-04T10:12:44.196Z,17.02
2018-11-04T10:15:13.772Z,17.10
2018-11-04T10:17:43.338Z,17.16
2018-11-04T10:20:13.752Z,17.19
2018-11-04T10:22:42.963Z,17.22
2018-11-04T10:25:13.351Z,17.22
2018-11-04T10:27:43.121Z,17.26
2018-11-04T10:30:15.114Z,16.54
2018-11-04T10:32:44.651Z,17.30
2018-11-04T10:35:14.241Z,17.29
2018-11-04T10:37:44.105Z,17.31
2018-11-04T10:40:14.517Z,17.30
2018-11-04T10:42:44.096Z,17.35
2018-11-04T10:45:13.608Z,17.39
2018-11-04T10:47:43.166Z,17.44
2018-11-04T10:50:13.404Z,17.50
2018-11-04T10:52:42.976Z,17.51
2018-11-04T10:55:12.515Z,17.39
2018-11-04T10:57:42.105Z,17.49
2018-11-04T11:00:16.862Z,17.51
2018-11-04T11:02:46.692Z,17.54
2018-11-04T11:05:16.471Z,17.56
2018-11-04T11:07:46.236Z,17.59
2018-11-04T11:10:15.738Z,17.62
2018-11-04T11:12:45.283Z,17.63
2018-11-04T11:15:14.792Z,17.63
2018-11-04T11:17:44.416Z,17.65
2018-11-04T11:20:13.928Z,17.70
2018-11-04T11:22:43.807Z,17.70
2018-11-04T11:25:13.190Z,17.72
2018-11-04T11:27:42.734Z,17.76
2018-11-04T11:30:12.401Z,17.78
2018-11-04T11:32:41.862Z,17.81
2018-11-04T11:35:11.363Z,17.82
2018-11-04T11:37:40.944Z,17.85
2018-11-04T11:40:10.842Z,17.88
2018-11-04T11:42:40.484Z,17.91
2018-11-04T11:45:10.541Z,17.94
2018-11-04T11:47:40.114Z,17.98
2018-11-04T11:50:09.804Z,18.01
2018-11-04T11:52:39.453Z,18.02
2018-11-04T11:55:09.154Z,18.04
2018-11-04T11:57:38.719Z,18.06
2018-11-04T12:00:09.703Z,18.08
2018-11-04T12:02:39.953Z,18.10
2018-11-04T12:05:09.929Z,18.12
2018-11-04T12:07:39.591Z,18.16
2018-11-04T12:10:11.339Z,18.14
2018-11-04T12:12:40.911Z,18.19
2018-11-04T12:15:11.886Z,18.22
2018-11-04T12:17:41.460Z,18.24
2018-11-04T12:20:11.935Z,18.26
2018-11-04T12:22:41.578Z,18.28
2018-11-04T12:25:12.318Z,18.29
2018-11-04T12:27:42.026Z,18.31
2018-11-04T12:30:13.496Z,18.37
2018-11-04T12:32:43.042Z,18.38
2018-11-04T12:35:13.638Z,18.39
2018-11-04T12:37:43.384Z,18.44
2018-11-04T12:40:13.686Z,18.47
2018-11-04T12:42:43.167Z,18.48
2018-11-04T12:45:13.362Z,18.50
2018-11-04T12:47:43.043Z,18.52
2018-11-04T12:50:13.317Z,18.55
2018-11-04T12:52:42.971Z,18.55
2018-11-04T12:55:12.574Z,18.58
2018-11-04T12:57:42.119Z,18.59
2018-11-04T13:00:14.423Z,18.61
2018-11-04T13:02:44.652Z,18.61
2018-11-04T13:05:14.270Z,18.61
2018-11-04T13:07:43.810Z,18.64
2018-11-04T13:10:14.303Z,18.64
2018-11-04T13:12:43.810Z,18.66
2018-11-04T13:15:14.483Z,18.26
2018-11-04T13:17:44.377Z,18.68
2018-11-04T13:20:13.898Z,18.66
2018-11-04T13:22:43.446Z,18.69
2018-11-04T13:25:12.977Z,18.71
2018-11-04T13:27:42.543Z,18.71
2018-11-04T13:30:13.259Z,18.71
2018-11-04T13:32:42.842Z,18.70
2018-11-04T13:35:12.352Z,18.68
2018-11-04T13:37:41.892Z,18.68
2018-11-04T13:40:12.283Z,18.67
2018-11-04T13:42:42.186Z,18.65
2018-11-04T13:45:12.192Z,18.66
2018-11-04T13:47:41.728Z,18.64
2018-11-04T13:50:12.787Z,18.62
2018-11-04T13:52:42.684Z,18.56
2018-11-04T13:55:12.268Z,18.54
2018-11-04T13:57:41.848Z,18.53
2018-11-04T14:00:15.365Z,18.49
2018-11-04T14:02:46.525Z,18.44
2018-11-04T14:05:16.066Z,18.37
2018-11-04T14:07:45.643Z,18.34
2018-11-04T14:10:16.175Z,18.28
2018-11-04T14:12:46.324Z,18.23
2018-11-04T14:15:16.006Z,18.19
2018-11-04T14:17:45.667Z,18.16
2018-11-04T14:20:15.211Z,18.10
2018-11-04T14:22:44.770Z,18.03
2018-11-04T14:25:14.287Z,17.97
2018-11-04T14:27:43.871Z,17.88
2018-11-04T14:30:15.398Z,17.84
2018-11-04T14:32:45.100Z,17.80
2018-11-04T14:35:14.656Z,17.72
2018-11-04T14:37:44.155Z,17.65
2018-11-04T14:40:14.928Z,17.61
2018-11-04T14:42:45.171Z,17.52
2018-11-04T14:45:14.815Z,17.42
2018-11-04T14:47:44.341Z,17.36
2018-11-04T14:50:15.233Z,17.29
2018-11-04T14:52:44.872Z,17.21
2018-11-04T14:55:14.416Z,17.13
2018-11-04T14:57:43.992Z,17.03
2018-11-04T15:00:15.566Z,16.96
2018-11-04T15:02:45.139Z,16.87
2018-11-04T15:05:14.657Z,16.77
2018-11-04T15:07:44.220Z,16.67
2018-11-04T15:10:14.786Z,16.60
2018-11-04T15:12:44.603Z,16.51
2018-11-04T15:15:15.696Z,16.44
2018-11-04T15:17:45.256Z,16.34
2018-11-04T15:20:14.783Z,16.27
2018-11-04T15:22:51.669Z,16.19
2018-11-04T15:25:22.179Z,16.13
2018-11-04T15:27:51.772Z,16.06
2018-11-04T15:30:21.307Z,15.99
2018-11-04T15:32:50.910Z,15.92
2018-11-04T15:35:20.404Z,15.86
2018-11-04T15:37:49.961Z,15.78
2018-11-04T15:40:19.570Z,15.69
2018-11-04T15:42:49.088Z,15.61
2018-11-04T15:45:18.646Z,15.53
2018-11-04T15:47:48.152Z,15.45
2018-11-04T15:50:18.856Z,15.36
2018-11-04T15:52:49.020Z,15.31
2018-11-04T15:55:18.558Z,15.22
2018-11-04T15:57:48.113Z,15.17
2018-11-04T16:00:17.614Z,15.10
2018-11-04T16:02:47.230Z,15.03
2018-11-04T16:05:16.743Z,14.97
2018-11-04T16:07:46.284Z,14.92
2018-11-04T16:10:15.847Z,14.85
2018-11-04T16:12:45.399Z,14.80
2018-11-04T16:15:15.571Z,14.75
2018-11-04T16:17:45.542Z,14.70
2018-11-04T16:20:15.961Z,14.65
2018-11-04T16:22:46.195Z,14.59
2018-11-04T16:25:15.745Z,14.53
2018-11-04T16:27:45.303Z,14.47
2018-11-04T16:30:15.576Z,14.39
2018-11-04T16:32:45.164Z,14.32
2018-11-04T16:35:15.393Z,14.27
2018-11-04T16:37:45.688Z,14.21
2018-11-04T16:40:15.203Z,14.15
2018-11-04T16:42:44.763Z,14.08
2018-11-04T16:45:15.533Z,14.05
2018-11-04T16:47:45.143Z,14.01
2018-11-04T16:50:15.237Z,13.98
2018-11-04T16:52:45.264Z,13.95
2018-11-04T16:55:15.074Z,13.90
2018-11-04T16:57:44.948Z,13.86
2018-11-04T17:00:14.459Z,13.81
2018-11-04T17:02:44.020Z,13.76
2018-11-04T17:05:14.005Z,13.73
2018-11-04T17:07:43.839Z,13.68
2018-11-04T17:10:13.357Z,13.66
2018-11-04T17:12:42.951Z,13.63
2018-11-04T17:15:13.835Z,13.61
2018-11-04T17:17:43.635Z,13.57
2018-11-04T17:20:16.253Z,13.55
2018-11-04T17:22:46.111Z,13.52
2018-11-04T17:25:15.636Z,12.61
2018-11-04T17:27:45.290Z,13.45
2018-11-04T17:30:16.638Z,13.42
2018-11-04T17:32:46.450Z,13.39
2018-11-04T17:35:16.628Z,13.35
2018-11-04T17:37:46.530Z,13.31
2018-11-04T17:40:16.756Z,13.27
2018-11-04T17:42:46.432Z,13.25
2018-11-04T17:45:16.920Z,13.21
2018-11-04T17:47:46.976Z,13.17
2018-11-04T17:50:17.935Z,13.10
2018-11-04T17:52:47.559Z,13.07
2018-11-04T17:55:17.253Z,13.04
2018-11-04T17:57:46.980Z,13.00
2018-11-04T18:00:17.337Z,12.96
2018-11-04T18:02:47.039Z,12.96
2018-11-04T18:05:16.597Z,12.93
2018-11-04T18:07:46.183Z,12.91
2018-11-04T18:10:16.347Z,12.89
2018-11-04T18:12:45.924Z,12.86
2018-11-04T18:15:15.671Z,12.84
2018-11-04T18:17:45.382Z,12.82
2018-11-04T18:20:14.914Z,12.78
2018-11-04T18:22:44.460Z,12.76
2018-11-04T18:25:14.101Z,12.76
2018-11-04T18:27:43.602Z,12.67
2018-11-04T18:30:14.755Z,12.66
2018-11-04T18:32:44.788Z,12.59
2018-11-04T18:35:14.411Z,12.55
2018-11-04T18:37:44.031Z,12.53
2018-11-04T18:40:15.935Z,12.53
2018-11-04T18:42:45.993Z,12.48
2018-11-04T18:45:16.576Z,12.54
2018-11-04T18:47:46.188Z,12.56
2018-11-04T18:50:16.424Z,12.50
2018-11-04T18:52:46.160Z,12.49
2018-11-04T18:55:15.635Z,12.47
2018-11-04T18:57:45.404Z,12.44
2018-11-04T19:00:17.212Z,12.41
2018-11-04T19:02:47.452Z,12.39
2018-11-04T19:05:17.087Z,12.35
2018-11-04T19:07:46.778Z,12.35
2018-11-04T19:10:17.671Z,12.35
2018-11-04T19:12:47.347Z,12.34
2018-11-04T19:15:16.917Z,12.34
2018-11-04T19:17:46.480Z,12.34
2018-11-04T19:20:16.392Z,12.30
2018-11-04T19:22:45.966Z,12.27
2018-11-04T19:25:16.180Z,12.25
2018-11-04T19:27:45.788Z,12.21
2018-11-04T19:30:16.498Z,12.17
2018-11-04T19:32:46.422Z,12.12
2018-11-04T19:35:16.936Z,12.08
2018-11-04T19:37:46.513Z,12.05
2018-11-04T19:40:16.691Z,12.00
2018-11-04T19:42:46.305Z,11.98
2018-11-04T19:45:15.871Z,11.93
2018-11-04T19:47:45.429Z,11.88
2018-11-04T19:50:15.020Z,11.77
2018-11-04T19:52:44.522Z,11.75
2018-11-04T19:55:14.303Z,11.73
2018-11-04T19:57:43.786Z,11.68
2018-11-04T20:00:13.883Z,11.64
2018-11-04T20:02:43.409Z,11.61
2018-11-04T20:05:13.525Z,11.61
2018-11-04T20:07:43.240Z,11.57
2018-11-04T20:10:15.423Z,11.53
2018-11-04T20:12:50.086Z,11.51
2018-11-04T20:15:19.612Z,11.46
2018-11-04T20:17:49.669Z,11.45
2018-11-04T20:20:23.620Z,11.41
2018-11-04T20:22:53.272Z,11.40
2018-11-04T20:25:27.799Z,11.37
2018-11-04T20:27:57.365Z,11.35
2018-11-04T20:30:26.930Z,11.32
2018-11-04T20:33:01.593Z,11.29
2018-11-04T20:35:31.188Z,11.27
2018-11-04T20:38:00.721Z,11.25
2018-11-04T20:40:35.238Z,11.23
2018-11-04T20:43:04.781Z,11.21
2018-11-04T20:45:34.355Z,11.21
2018-11-04T20:48:08.944Z,11.19
2018-11-04T20:50:43.598Z,11.16
2018-11-04T20:53:13.157Z,11.14
2018-11-04T20:55:47.632Z,11.12
2018-11-04T20:58:17.447Z,11.09
2018-11-04T21:00:46.814Z,11.04
2018-11-04T21:03:16.302Z,11.01
2018-11-04T21:05:45.885Z,10.99
2018-11-04T21:08:15.447Z,10.95
2018-11-04T21:10:45.031Z,10.92
2018-11-04T21:13:14.521Z,10.92
2018-11-04T21:15:44.110Z,10.92
2018-11-04T21:18:13.605Z,10.91
2018-11-04T21:20:43.193Z,10.93
2018-11-04T21:23:12.699Z,10.94
2018-11-04T21:25:42.460Z,10.96
2018-11-04T21:28:11.928Z,11.00
2018-11-04T21:30:41.467Z,11.02
2018-11-04T21:33:11.047Z,11.04
2018-11-04T21:35:40.569Z,11.06
2018-11-04T21:38:10.143Z,11.09
2018-11-04T21:40:39.719Z,11.10
2018-11-04T21:43:09.349Z,11.11
2018-11-04T21:45:38.823Z,11.12
2018-11-04T21:48:08.363Z,11.11
2018-11-04T21:50:37.870Z,11.08
2018-11-04T21:53:07.488Z,11.05
2018-11-04T21:55:37.321Z,11.02
2018-11-04T21:58:11.150Z,10.99
2018-11-04T22:00:40.802Z,10.95
2018-11-04T22:03:10.598Z,10.92
2018-11-04T22:05:40.061Z,10.88
2018-11-04T22:08:09.625Z,10.85
2018-11-04T22:10:39.257Z,10.82
2018-11-04T22:13:08.750Z,10.79
2018-11-04T22:15:38.281Z,10.77
2018-11-04T22:18:07.912Z,10.73
2018-11-04T22:20:37.424Z,10.72
2018-11-04T22:23:07.041Z,10.71
2018-11-04T22:25:36.624Z,10.69
2018-11-04T22:28:06.210Z,10.67
2018-11-04T22:30:35.700Z,10.64
2018-11-04T22:33:05.257Z,10.61
2018-11-04T22:35:34.835Z,10.59
2018-11-04T22:38:04.427Z,10.58
2018-11-04T22:40:33.927Z,9.62
2018-11-04T22:43:03.492Z,10.55
2018-11-04T22:45:32.985Z,10.54
2018-11-04T22:48:02.529Z,10.55
2018-11-04T22:50:32.050Z,10.59
2018-11-04T22:53:01.653Z,10.56
2018-11-04T22:55:31.146Z,10.58
2018-11-04T22:58:06.458Z,10.59
2018-11-04T23:00:41.091Z,10.64
2018-11-04T23:03:11.125Z,10.69
2018-11-04T23:05:40.683Z,10.74
2018-11-04T23:08:10.719Z,10.80
2018-11-04T23:10:40.289Z,10.87
2018-11-04T23:13:09.788Z,10.92
2018-11-04T23:15:39.325Z,10.99
2018-11-04T23:18:08.891Z,11.05
2018-11-04T23:20:38.419Z,10.36
2018-11-04T23:23:07.951Z,11.16
2018-11-04T23:25:37.471Z,11.22
2018-11-04T23:28:07.026Z,11.30
2018-11-04T23:30:36.563Z,11.40
2018-11-04T23:33:06.139Z,11.47
2018-11-04T23:35:35.707Z,11.53
2018-11-04T23:38:05.289Z,11.55
2018-11-04T23:40:34.796Z,11.55
2018-11-04T23:43:04.358Z,11.57
2018-11-04T23:45:33.890Z,11.62
2018-11-04T23:48:03.444Z,11.69
2018-11-04T23:50:32.934Z,11.75
2018-11-04T23:53:02.454Z,11.83
2018-11-04T23:55:31.974Z,11.89
2018-11-04T23:58:01.519Z,11.94
